createdAt,value
2023-05-25T00:02:56.889Z,5.93
2023-05-25T00:05:42.420Z,6.07
2023-05-25T00:08:27.921Z,5.40
2023-05-25T00:11:13.067Z,6.00
2023-05-25T00:13:58.316Z,7.03
2023-05-25T01:01:04.048Z,6.70
2023-05-25T01:03:53.802Z,5.95
2023-05-25T01:06:40.385Z,6.93
2023-05-25T01:09:27.754Z,5.75
2023-05-25T01:12:15.130Z,4.37
2023-05-25T01:15:01.878Z,5.15
2023-05-25T01:46:39.172Z,4.75
2023-05-25T01:49:27.678Z,6.53
2023-05-25T01:52:19.481Z,4.43
2023-05-25T01:55:16.093Z,5.45
2023-05-25T01:58:02.572Z,5.13
2023-05-25T02:46:26.086Z,4.20
2023-05-25T02:49:12.213Z,5.55
2023-05-25T02:51:58.065Z,5.85
2023-05-25T02:54:43.499Z,5.45
2023-05-25T02:57:37.063Z,4.00
2023-05-25T03:47:52.983Z,6.78
2023-05-25T03:50:40.877Z,6.85
2023-05-25T03:53:25.876Z,4.80
2023-05-25T03:56:11.372Z,5.22
2023-05-25T03:58:56.643Z,5.03
2023-05-25T04:46:02.425Z,4.17
2023-05-25T04:48:48.929Z,4.55
2023-05-25T04:51:34.286Z,7.07
2023-05-25T04:54:19.833Z,7.05
2023-05-25T04:57:06.251Z,3.72
2023-05-25T04:59:51.624Z,5.80
2023-05-25T05:02:37.248Z,4.85
2023-05-25T05:05:23.405Z,4.25
2023-05-25T05:08:09.522Z,5.03
2023-05-25T05:10:54.960Z,4.00
2023-05-25T05:13:41.882Z,6.93
2023-05-25T05:16:31.667Z,5.35
2023-05-25T05:19:17.306Z,7.38
2023-05-25T05:22:02.661Z,7.43
2023-05-25T05:24:48.109Z,10.35
2023-05-25T05:27:40.635Z,7.27
2023-05-25T05:30:32.605Z,6.32
2023-05-25T05:33:18.220Z,8.13
2023-05-25T05:36:05.615Z,10.75
2023-05-25T05:38:50.752Z,10.15
2023-05-25T05:41:36.299Z,12.20
2023-05-25T05:44:23.070Z,11.75
2023-05-25T05:47:09.907Z,10.27
2023-05-25T05:49:55.339Z,14.02
2023-05-25T05:52:40.902Z,14.45
2023-05-25T05:55:28.601Z,10.90
2023-05-25T05:58:13.915Z,10.88
2023-05-25T06:01:00.019Z,13.60
2023-05-25T06:03:45.904Z,9.85
2023-05-25T06:06:33.060Z,12.93
2023-05-25T06:09:18.878Z,10.63
2023-05-25T06:12:04.457Z,12.48
2023-05-25T06:14:52.093Z,10.48
2023-05-25T06:17:37.779Z,12.70
2023-05-25T06:20:23.449Z,12.13
2023-05-25T06:23:14.010Z,12.83
2023-05-25T06:26:03.119Z,13.20
2023-05-25T06:28:50.104Z,10.63
2023-05-25T06:31:35.218Z,10.18
2023-05-25T06:34:20.648Z,8.25
2023-05-25T06:37:06.057Z,11.53
2023-05-25T06:39:51.297Z,10.73
2023-05-25T06:42:37.842Z,7.15
2023-05-25T06:45:33.192Z,8.68
2023-05-25T06:48:18.893Z,8.68
2023-05-25T06:51:04.117Z,9.43
2023-05-25T06:53:49.207Z,9.52
2023-05-25T06:56:34.740Z,8.32
2023-05-25T06:59:20.006Z,9.00
2023-05-25T07:02:05.438Z,8.18
2023-05-25T07:04:51.521Z,8.20
2023-05-25T07:07:37.134Z,8.45
2023-05-25T07:10:22.695Z,8.20
2023-05-25T07:13:08.100Z,8.35
2023-05-25T07:15:53.594Z,8.18
2023-05-25T07:18:39.940Z,6.50
2023-05-25T07:21:25.640Z,7.22
2023-05-25T07:24:10.880Z,6.90
2023-05-25T07:26:56.161Z,6.95
2023-05-25T07:29:41.776Z,7.72
2023-05-25T07:32:26.904Z,7.30
2023-05-25T07:35:12.429Z,6.57
2023-05-25T07:37:57.771Z,6.18
2023-05-25T07:40:44.495Z,6.85
2023-05-25T07:43:29.881Z,6.30
2023-05-25T07:46:14.721Z,6.77
2023-05-25T07:49:00.143Z,7.43
2023-05-25T07:51:45.858Z,5.43
2023-05-25T07:54:30.901Z,7.07
2023-05-25T07:57:16.327Z,6.65
2023-05-25T08:00:01.759Z,8.40
2023-05-25T08:02:47.219Z,6.38
2023-05-25T08:05:32.473Z,6.47
2023-05-25T08:08:18.685Z,7.63
2023-05-25T08:11:03.921Z,8.48
2023-05-25T08:13:49.311Z,7.87
2023-05-25T08:16:34.680Z,6.20
2023-05-25T08:19:19.961Z,7.30
2023-05-25T08:22:05.279Z,6.88
2023-05-25T08:24:50.850Z,6.40
2023-05-25T08:27:36.646Z,6.53
2023-05-25T08:30:22.009Z,6.68
2023-05-25T08:33:07.899Z,7.15
2023-05-25T08:35:53.469Z,6.88
2023-05-25T08:38:38.546Z,6.57
2023-05-25T08:41:24.035Z,6.67
2023-05-25T08:44:10.080Z,6.57
2023-05-25T08:46:56.667Z,5.78
2023-05-25T08:49:44.458Z,5.85
2023-05-25T08:52:33.360Z,6.15
2023-05-25T08:55:20.896Z,5.63
2023-05-25T08:58:09.208Z,7.65
2023-05-25T09:00:57.382Z,5.80
2023-05-25T09:03:44.099Z,6.32
2023-05-25T09:06:29.747Z,6.57
2023-05-25T09:09:14.916Z,6.50
2023-05-25T09:12:00.646Z,7.53
2023-05-25T09:14:47.766Z,5.35
2023-05-25T09:17:34.186Z,5.45
2023-05-25T09:20:21.361Z,5.95
2023-05-25T09:23:06.582Z,5.00
2023-05-25T09:25:52.256Z,5.90
2023-05-25T09:28:45.064Z,5.38
2023-05-25T09:31:31.544Z,5.60
2023-05-25T09:34:16.755Z,5.72
2023-05-25T09:37:04.010Z,6.27
2023-05-25T09:39:51.416Z,5.70
2023-05-25T09:42:37.431Z,6.03
2023-05-25T09:45:23.156Z,6.50
2023-05-25T09:48:08.597Z,4.95
2023-05-25T09:50:53.731Z,5.37
2023-05-25T09:53:38.935Z,5.25
2023-05-25T09:56:24.694Z,6.55
2023-05-25T09:59:09.936Z,5.38
2023-05-25T10:01:56.813Z,5.90
2023-05-25T10:04:42.221Z,6.00
2023-05-25T10:07:27.701Z,6.25
2023-05-25T10:10:15.247Z,6.20
2023-05-25T10:13:00.825Z,5.25
2023-05-25T10:15:47.849Z,5.25
2023-05-25T10:18:35.976Z,4.17
2023-05-25T10:21:22.712Z,5.70
2023-05-25T10:24:18.510Z,5.07
2023-05-25T10:27:14.718Z,5.97
2023-05-25T10:30:09.581Z,5.50
2023-05-25T10:32:55.646Z,4.77
2023-05-25T10:36:01.598Z,5.88
2023-05-25T10:38:50.855Z,5.35
2023-05-25T10:41:36.036Z,5.25
2023-05-25T10:44:21.158Z,4.93
2023-05-25T10:47:06.822Z,4.77
2023-05-25T10:49:58.969Z,5.82
2023-05-25T10:52:44.309Z,5.47
2023-05-25T10:55:41.187Z,5.78
2023-05-25T10:58:27.477Z,5.75
2023-05-25T11:01:13.615Z,5.03
2023-05-25T11:04:11.468Z,4.78
2023-05-25T11:07:02.994Z,5.10
2023-05-25T11:09:58.694Z,5.05
2023-05-25T11:12:46.478Z,5.28
2023-05-25T11:15:31.561Z,5.77
2023-05-25T11:18:16.901Z,5.53
2023-05-25T11:21:18.794Z,5.32
2023-05-25T11:24:10.626Z,5.45
2023-05-25T11:26:57.162Z,5.25
2023-05-25T11:29:42.277Z,5.27
2023-05-25T11:32:28.343Z,5.28
2023-05-25T11:35:13.701Z,5.25
2023-05-25T11:38:00.389Z,5.80
2023-05-25T11:40:45.730Z,4.82
2023-05-25T11:43:31.369Z,5.57
2023-05-25T11:46:18.762Z,5.10
2023-05-25T11:49:05.087Z,5.93
2023-05-25T11:51:50.447Z,6.50
2023-05-25T11:54:36.170Z,4.97
2023-05-25T11:57:25.687Z,4.80
2023-05-25T12:00:11.447Z,5.05
2023-05-25T12:02:58.475Z,5.70
2023-05-25T12:05:44.036Z,5.07
2023-05-25T12:08:35.906Z,4.90
2023-05-25T12:11:28.184Z,4.60
2023-05-25T12:14:13.843Z,4.72
2023-05-25T12:16:58.983Z,5.47
2023-05-25T12:19:44.775Z,5.07
2023-05-25T12:22:31.121Z,4.93
2023-05-25T12:25:19.238Z,4.97
2023-05-25T12:28:16.810Z,5.38
2023-05-25T12:31:21.557Z,4.70
2023-05-25T12:34:07.632Z,5.78
2023-05-25T12:36:53.845Z,4.72
2023-05-25T12:39:39.649Z,5.57
2023-05-25T12:42:26.662Z,5.40
2023-05-25T12:45:11.863Z,4.65
2023-05-25T12:47:58.071Z,4.72
2023-05-25T12:50:58.242Z,5.30
2023-05-25T12:54:02.661Z,6.67
2023-05-25T12:56:57.167Z,4.65
2023-05-25T12:59:46.791Z,5.22
2023-05-25T13:02:32.291Z,5.45
2023-05-25T13:05:18.538Z,5.50
2023-05-25T13:08:05.132Z,4.83
2023-05-25T13:10:51.393Z,4.78
2023-05-25T13:13:37.422Z,5.75
2023-05-25T13:16:23.088Z,4.60
2023-05-25T13:19:08.463Z,4.63
2023-05-25T13:21:57.041Z,6.60
2023-05-25T13:24:42.539Z,4.82
2023-05-25T13:27:28.607Z,4.60
2023-05-25T13:30:14.237Z,4.82
2023-05-25T13:32:59.598Z,5.25
2023-05-25T13:36:08.034Z,5.10
2023-05-25T13:38:53.868Z,5.13
2023-05-25T13:41:39.366Z,5.30
2023-05-25T13:44:24.834Z,5.82
2023-05-25T13:47:10.401Z,5.70
2023-05-25T13:49:55.530Z,4.70
2023-05-25T13:52:40.783Z,4.90
2023-05-25T13:55:26.375Z,4.72
2023-05-25T13:58:11.635Z,5.10
2023-05-25T14:00:57.012Z,5.65
2023-05-25T14:03:42.799Z,5.43
2023-05-25T14:06:28.892Z,4.82
2023-05-25T14:09:14.247Z,4.68
2023-05-25T14:11:59.727Z,4.60
2023-05-25T14:14:45.031Z,4.82
2023-05-25T14:17:30.570Z,5.57
2023-05-25T14:20:20.900Z,5.78
2023-05-25T14:23:05.910Z,6.00
2023-05-25T14:25:51.403Z,4.88
2023-05-25T14:28:36.357Z,5.15
2023-05-25T14:31:21.873Z,4.53
2023-05-25T14:34:07.070Z,4.93
2023-05-25T14:36:52.239Z,4.15
2023-05-25T14:39:37.608Z,5.70
2023-05-25T14:42:22.905Z,5.20
2023-05-25T14:45:10.982Z,4.70
2023-05-25T14:48:11.992Z,3.78
2023-05-25T14:51:02.747Z,4.70
2023-05-25T14:53:47.950Z,4.30
2023-05-25T14:56:33.613Z,5.00
2023-05-25T14:59:18.802Z,4.30
2023-05-25T15:02:04.266Z,5.13
2023-05-25T15:04:49.475Z,4.25
2023-05-25T15:07:34.784Z,3.70
2023-05-25T15:10:20.253Z,3.80
2023-05-25T15:13:05.676Z,6.63
2023-05-25T15:15:54.582Z,5.15
2023-05-25T15:18:39.599Z,4.40
2023-05-25T15:21:25.583Z,5.70
2023-05-25T15:24:13.822Z,4.93
2023-05-25T15:26:59.324Z,4.53
2023-05-25T15:29:45.924Z,4.10
2023-05-25T15:32:31.171Z,4.93
2023-05-25T15:35:16.691Z,5.03
2023-05-25T15:38:01.997Z,4.57
2023-05-25T15:40:47.211Z,4.80
2023-05-25T15:43:32.724Z,4.35
2023-05-25T15:46:18.597Z,5.53
2023-05-25T15:49:03.578Z,4.03
2023-05-25T15:51:48.995Z,4.93
2023-05-25T15:54:34.420Z,4.27
2023-05-25T15:57:19.684Z,4.70
2023-05-25T16:00:05.605Z,4.35
2023-05-25T16:02:51.066Z,5.05
2023-05-25T16:05:36.336Z,4.15
2023-05-25T16:08:21.918Z,5.63
2023-05-25T16:11:07.045Z,4.40
2023-05-25T16:13:52.509Z,6.57
2023-05-25T16:16:37.922Z,4.22
2023-05-25T16:19:23.637Z,4.40
2023-05-25T16:22:08.581Z,5.20
2023-05-25T16:24:54.119Z,4.78
2023-05-25T16:27:39.618Z,3.47
2023-05-25T16:30:24.732Z,4.18
2023-05-25T16:33:09.843Z,5.47
2023-05-25T16:35:55.069Z,3.87
2023-05-25T16:38:40.860Z,4.03
2023-05-25T16:41:27.412Z,6.72
2023-05-25T16:44:12.769Z,4.40
2023-05-25T16:46:58.283Z,3.70
2023-05-25T16:49:43.705Z,4.33
2023-05-25T16:52:29.132Z,4.68
2023-05-25T16:55:16.026Z,3.42
2023-05-25T16:58:01.214Z,4.70
2023-05-25T17:00:46.713Z,3.45
2023-05-25T17:03:32.216Z,3.83
2023-05-25T17:06:17.609Z,4.38
2023-05-25T17:09:03.459Z,3.97
2023-05-25T17:11:48.496Z,4.15
2023-05-25T17:14:34.226Z,3.72
2023-05-25T17:17:19.658Z,3.90
2023-05-25T17:20:05.186Z,4.13
2023-05-25T17:22:51.413Z,4.40
2023-05-25T17:25:39.040Z,4.47
2023-05-25T17:28:26.181Z,5.28
2023-05-25T17:31:11.361Z,4.33
2023-05-25T17:33:56.808Z,4.07
2023-05-25T17:36:42.771Z,3.50
2023-05-25T17:39:27.910Z,3.88
2023-05-25T17:42:13.426Z,3.70
2023-05-25T17:44:58.957Z,4.57
2023-05-25T17:47:44.518Z,4.63
2023-05-25T17:50:30.045Z,4.03
2023-05-25T17:53:15.408Z,3.78
2023-05-25T17:56:00.627Z,3.72
2023-05-25T17:58:47.648Z,5.03
2023-05-25T18:01:35.177Z,3.67
2023-05-25T18:04:21.473Z,3.72
2023-05-25T18:07:06.730Z,3.63
2023-05-25T18:09:52.265Z,3.95
2023-05-25T18:12:37.725Z,3.90
2023-05-25T18:15:23.046Z,4.88
2023-05-25T18:18:08.522Z,4.50
2023-05-25T18:20:53.744Z,4.07
2023-05-25T18:23:39.250Z,3.72
2023-05-25T18:26:24.789Z,4.33
2023-05-25T18:29:10.148Z,5.03
2023-05-25T18:31:55.602Z,3.03
2023-05-25T18:34:41.306Z,4.45
2023-05-25T18:37:29.005Z,4.13
2023-05-25T18:40:14.428Z,3.63
2023-05-25T18:42:59.492Z,5.55
2023-05-25T18:45:45.202Z,6.82
2023-05-25T18:48:30.457Z,7.40
2023-05-25T18:51:17.016Z,7.53
2023-05-25T18:54:02.371Z,7.20
2023-05-25T18:56:47.899Z,7.55
2023-05-25T18:59:36.276Z,7.45
2023-05-25T19:02:21.808Z,9.52
2023-05-25T19:05:07.392Z,8.27
2023-05-25T19:07:58.883Z,9.73
2023-05-25T19:10:45.485Z,9.68
2023-05-25T19:13:30.697Z,10.07
2023-05-25T19:16:16.183Z,10.07
2023-05-25T19:19:01.768Z,11.02
2023-05-25T19:21:47.165Z,10.50
2023-05-25T19:24:32.761Z,11.00
2023-05-25T19:27:19.937Z,9.20
2023-05-25T19:30:05.423Z,8.65
2023-05-25T19:32:50.651Z,7.47
2023-05-25T19:35:36.313Z,8.33
2023-05-25T19:38:22.143Z,6.63
2023-05-25T19:41:08.627Z,9.27
2023-05-25T19:43:53.809Z,11.10
2023-05-25T19:46:40.650Z,9.60
2023-05-25T19:49:25.780Z,8.67
2023-05-25T19:52:11.240Z,8.25
2023-05-25T19:54:56.637Z,8.45
2023-05-25T19:57:42.039Z,9.48
2023-05-25T20:00:27.531Z,8.57
2023-05-25T20:03:16.056Z,8.53
2023-05-25T20:06:01.500Z,9.15
2023-05-25T20:08:46.977Z,7.55
2023-05-25T20:11:32.418Z,11.23
2023-05-25T20:14:19.965Z,9.73
2023-05-25T20:17:05.757Z,10.10
2023-05-25T20:19:51.050Z,9.02
2023-05-25T20:22:37.364Z,7.55
2023-05-25T20:25:22.681Z,7.05
2023-05-25T20:28:08.131Z,10.02
2023-05-25T20:30:53.550Z,6.93
2023-05-25T20:33:38.956Z,9.88
2023-05-25T20:36:24.478Z,9.75
2023-05-25T20:39:09.899Z,10.30
2023-05-25T20:41:55.144Z,8.73
2023-05-25T20:44:40.567Z,10.30
2023-05-25T20:47:26.196Z,10.15
2023-05-25T20:50:11.484Z,11.88
2023-05-25T20:52:57.127Z,10.90
2023-05-25T20:55:42.283Z,9.85
2023-05-25T20:58:27.451Z,10.87
2023-05-25T21:01:12.951Z,12.00
2023-05-25T21:03:58.290Z,10.48
2023-05-25T21:06:43.684Z,10.10
2023-05-25T21:09:28.939Z,11.38
2023-05-25T21:12:14.370Z,9.43
2023-05-25T21:14:59.872Z,10.32
2023-05-25T21:17:45.625Z,7.65
2023-05-25T21:20:30.719Z,8.15
2023-05-25T21:23:16.542Z,8.32
2023-05-25T21:26:01.938Z,8.60
2023-05-25T21:28:47.226Z,9.10
2023-05-25T21:31:32.720Z,8.27
2023-05-25T21:34:18.066Z,7.60
2023-05-25T21:37:03.756Z,7.97
2023-05-25T21:39:48.911Z,9.90
2023-05-25T21:42:34.278Z,9.73
2023-05-25T21:45:19.977Z,8.70
2023-05-25T21:48:05.374Z,8.77
2023-05-25T21:50:51.866Z,8.93
2023-05-25T21:53:37.257Z,8.17
2023-05-25T21:56:22.977Z,11.40
2023-05-25T21:59:08.111Z,9.98
2023-05-25T22:01:53.710Z,7.60
2023-05-25T22:04:39.221Z,8.23
2023-05-25T22:07:24.731Z,8.13
2023-05-25T22:10:10.335Z,9.50
2023-05-25T22:12:56.203Z,9.45
2023-05-25T22:15:41.495Z,9.38
2023-05-25T22:18:27.143Z,7.45
2023-05-25T22:21:12.623Z,9.50
2023-05-25T22:23:58.703Z,8.00
2023-05-25T22:26:44.329Z,7.55
2023-05-25T22:29:29.458Z,9.13
2023-05-25T22:32:14.949Z,10.63
2023-05-25T22:35:01.058Z,9.17
2023-05-25T22:37:46.190Z,8.00
2023-05-25T22:40:31.692Z,9.25
2023-05-25T22:43:16.882Z,9.13
2023-05-25T22:46:02.494Z,9.77
2023-05-25T22:48:47.837Z,8.57
2023-05-25T22:51:33.302Z,8.40
2023-05-25T22:54:19.353Z,7.88
2023-05-25T22:57:04.590Z,10.02
2023-05-25T22:59:50.092Z,9.57
2023-05-25T23:18:11.266Z,11.30
2023-05-25T23:20:56.713Z,9.30
2023-05-25T23:23:42.038Z,9.77
2023-05-25T23:26:27.364Z,9.18
2023-05-25T23:29:12.923Z,9.63
